<?xml version='1.0' encoding='UTF-8'?>
<gpx version="1.1" creator="JOSM GPX export" xmlns="http://www.topografix.com/GPX/1/1"
    xmlns:josm="http://josm.openstreetmap.de/gpx-extensions-1.0"
    xmlns:xsi="http://www.w3.org/2001/XMLSchema-instance"
    xsi:schemaLocation="http://www.topografix.com/GPX/1/1 http://www.topografix.com/GPX/1/1/gpx.xsd">
  <metadata>
    <desc>https://josm.openstreetmap.de/ticket/16963</desc>
    <bounds minlat="43.40375" minlon="1.7045101" maxlat="43.409085" maxlon="1.7127443"/>
    <extensions>
      <josm:from-server>true</josm:from-server>
    </extensions>
  </metadata>
  <trk>
    <trkseg>
      <trkpt lat="43.4085945" lon="1.7127443">
        <time>2013-06-30T16:31:46Z</time>
      </trkpt>
      <trkpt lat="43.4079198" lon="1.7118309">
        <time>2013-06-30T16:31:52Z</time>
      </trkpt>
      <trkpt lat="43.4075428" lon="1.7113474">
        <time>2013-06-30T16:31:56Z</time>
      </trkpt>
      <trkpt lat="43.4073745" lon="1.7111515">
        <time>2013-06-30T16:31:59Z</time>
      </trkpt>
      <trkpt lat="43.407244" lon="1.7110227">
        <time>2013-06-30T16:32:01Z</time>
      </trkpt>
      <trkpt lat="43.4068312" lon="1.7105151">
        <time>2013-06-30T16:32:06Z</time>
      </trkpt>
      <trkpt lat="43.4064948" lon="1.7100166">
        <time>2013-06-30T16:32:11Z</time>
      </trkpt>
      <trkpt lat="43.40621" lon="1.7095648">
        <time>2013-06-30T16:32:16Z</time>
      </trkpt>
      <trkpt lat="43.4061199" lon="1.7092996">
        <time>2013-06-30T16:32:20Z</time>
      </trkpt>
      <trkpt lat="43.406108" lon="1.7092507">
        <time>2013-06-30T16:32:21Z</time>
      </trkpt>
      <trkpt lat="43.406094" lon="1.7090766">
        <time>2013-06-30T16:32:23Z</time>
      </trkpt>
      <trkpt lat="43.405818" lon="1.7085872">
        <time>2013-06-30T16:32:27Z</time>
      </trkpt>
      <trkpt lat="43.4057945" lon="1.7084248">
        <time>2013-06-30T16:32:28Z</time>
      </trkpt>
      <trkpt lat="43.4058912" lon="1.7080149">
        <time>2013-06-30T16:32:30Z</time>
      </trkpt>
      <trkpt lat="43.4059386" lon="1.7077793">
        <time>2013-06-30T16:32:31Z</time>
      </trkpt>
      <trkpt lat="43.4059604" lon="1.7075506">
        <time>2013-06-30T16:32:32Z</time>
      </trkpt>
      <trkpt lat="43.4059608" lon="1.7073194">
        <time>2013-06-30T16:32:33Z</time>
      </trkpt>
      <trkpt lat="43.4059389" lon="1.7070832">
        <time>2013-06-30T16:32:34Z</time>
      </trkpt>
      <trkpt lat="43.4058933" lon="1.7068455">
        <time>2013-06-30T16:32:35Z</time>
      </trkpt>
      <trkpt lat="43.4057198" lon="1.7063777">
        <time>2013-06-30T16:32:37Z</time>
      </trkpt>
      <trkpt lat="43.4055952" lon="1.7061477">
        <time>2013-06-30T16:32:38Z</time>
      </trkpt>
      <trkpt lat="43.4050017" lon="1.7052183">
        <time>2013-06-30T16:32:42Z</time>
      </trkpt>
      <trkpt lat="43.4048496" lon="1.7049856">
        <time>2013-06-30T16:32:43Z</time>
      </trkpt>
    </trkseg>
  </trk>
  <trk>
    <name>2013_07_19_09_10_23.gpx</name>
    <desc>Lyon / Toulouse by train (traveling from east to south-west of France)</desc>
    <link href="https://api.openstreetmap.org/user/Pierre%20Mauduit/traces/1513457">
    </link>
    <trkseg>
      <trkpt lat="43.4038455" lon="1.7095201">
        <time>2013-07-19T10:54:21Z</time>
      </trkpt>
      <trkpt lat="43.4041643" lon="1.7092094">
        <time>2013-07-19T10:54:22Z</time>
      </trkpt>
      <trkpt lat="43.4044899" lon="1.7089079">
        <time>2013-07-19T10:54:23Z</time>
      </trkpt>
      <trkpt lat="43.4051539" lon="1.7083121">
        <time>2013-07-19T10:54:25Z</time>
      </trkpt>
      <trkpt lat="43.4054904" lon="1.7080137">
        <time>2013-07-19T10:54:26Z</time>
      </trkpt>
      <trkpt lat="43.4061396" lon="1.7074142">
        <time>2013-07-19T10:54:28Z</time>
      </trkpt>
      <trkpt lat="43.4064723" lon="1.7071109">
        <time>2013-07-19T10:54:29Z</time>
      </trkpt>
      <trkpt lat="43.4071416" lon="1.7064967">
        <time>2013-07-19T10:54:31Z</time>
      </trkpt>
      <trkpt lat="43.40747" lon="1.7062142">
        <time>2013-07-19T10:54:32Z</time>
      </trkpt>
      <trkpt lat="43.4077962" lon="1.7059162">
        <time>2013-07-19T10:54:33Z</time>
      </trkpt>
      <trkpt lat="43.4084621" lon="1.7053121">
        <time>2013-07-19T10:54:35Z</time>
      </trkpt>
      <trkpt lat="43.4087815" lon="1.7050108">
        <time>2013-07-19T10:54:36Z</time>
      </trkpt>
    </trkseg>
  </trk>
  <trk>
    <name>20130501.gpx</name>
    <desc>francia</desc>
    <link href="https://api.openstreetmap.org/user/random%20146/traces/1482989">
    </link>
    <trkseg>
      <trkpt lat="43.404828" lon="1.704977">
        <time>2013-05-01T15:59:04Z</time>
      </trkpt>
      <trkpt lat="43.4052" lon="1.705556">
        <time>2013-05-01T15:59:19Z</time>
      </trkpt>
      <trkpt lat="43.405569" lon="1.70615">
        <time>2013-05-01T15:59:35Z</time>
      </trkpt>
      <trkpt lat="43.405969" lon="1.707196">
        <time>2013-05-01T16:00:00Z</time>
      </trkpt>
      <trkpt lat="43.405847" lon="1.708276">
        <time>2013-05-01T16:00:21Z</time>
      </trkpt>
      <trkpt lat="43.405772" lon="1.708534">
        <time>2013-05-01T16:00:25Z</time>
      </trkpt>
      <trkpt lat="43.405759" lon="1.708567">
        <time>2013-05-01T16:00:27Z</time>
      </trkpt>
      <trkpt lat="43.405716" lon="1.708975">
        <time>2013-05-01T16:00:33Z</time>
      </trkpt>
      <trkpt lat="43.405871" lon="1.709403">
        <time>2013-05-01T16:00:44Z</time>
      </trkpt>
      <trkpt lat="43.405907" lon="1.709394">
        <time>2013-05-01T16:00:45Z</time>
      </trkpt>
      <trkpt lat="43.406407" lon="1.709974">
        <time>2013-05-01T16:01:01Z</time>
      </trkpt>
      <trkpt lat="43.406895" lon="1.710661">
        <time>2013-05-01T16:01:21Z</time>
      </trkpt>
      <trkpt lat="43.407197" lon="1.711078">
        <time>2013-05-01T16:01:38Z</time>
      </trkpt>
      <trkpt lat="43.407369" lon="1.711314">
        <time>2013-05-01T16:01:42Z</time>
      </trkpt>
      <trkpt lat="43.407853" lon="1.711723">
        <time>2013-05-01T16:01:58Z</time>
      </trkpt>
      <trkpt lat="43.408455" lon="1.712556">
        <time>2013-05-01T16:02:26Z</time>
      </trkpt>
    </trkseg>
  </trk>
  <trk>
    <name>20130501.gpx</name>
    <desc>south of france</desc>
    <link href="https://api.openstreetmap.org/user/random%20146/traces/1449553">
    </link>
    <trkseg>
      <trkpt lat="43.404828" lon="1.704977">
        <time>2013-05-01T15:59:04Z</time>
      </trkpt>
      <trkpt lat="43.4052" lon="1.705556">
        <time>2013-05-01T15:59:19Z</time>
      </trkpt>
      <trkpt lat="43.405569" lon="1.70615">
        <time>2013-05-01T15:59:35Z</time>
      </trkpt>
      <trkpt lat="43.405969" lon="1.707196">
        <time>2013-05-01T16:00:00Z</time>
      </trkpt>
      <trkpt lat="43.405847" lon="1.708276">
        <time>2013-05-01T16:00:21Z</time>
      </trkpt>
      <trkpt lat="43.405772" lon="1.708534">
        <time>2013-05-01T16:00:25Z</time>
      </trkpt>
      <trkpt lat="43.405759" lon="1.708567">
        <time>2013-05-01T16:00:27Z</time>
      </trkpt>
      <trkpt lat="43.405716" lon="1.708975">
        <time>2013-05-01T16:00:33Z</time>
      </trkpt>
      <trkpt lat="43.405871" lon="1.709403">
        <time>2013-05-01T16:00:44Z</time>
      </trkpt>
      <trkpt lat="43.405907" lon="1.709394">
        <time>2013-05-01T16:00:45Z</time>
      </trkpt>
      <trkpt lat="43.406407" lon="1.709974">
        <time>2013-05-01T16:01:01Z</time>
      </trkpt>
      <trkpt lat="43.406895" lon="1.710661">
        <time>2013-05-01T16:01:21Z</time>
      </trkpt>
      <trkpt lat="43.407197" lon="1.711078">
        <time>2013-05-01T16:01:38Z</time>
      </trkpt>
      <trkpt lat="43.407369" lon="1.711314">
        <time>2013-05-01T16:01:42Z</time>
      </trkpt>
      <trkpt lat="43.407853" lon="1.711723">
        <time>2013-05-01T16:01:58Z</time>
      </trkpt>
      <trkpt lat="43.408455" lon="1.712556">
        <time>2013-05-01T16:02:26Z</time>
      </trkpt>
    </trkseg>
  </trk>
  <trk>
    <name>20110306170707.gpx</name>
    <desc>castelnaudary-toulouse</desc>
    <link href="https://api.openstreetmap.org/user/pef31/traces/961356">
    </link>
    <trkseg>
      <trkpt lat="43.4057325" lon="1.7094254">
        <time>2011-03-06T16:48:17Z</time>
      </trkpt>
    </trkseg>
  </trk>
  <trk>
    <name>2010_11_22_054756.gpx</name>
    <desc>Train Toulouse - Narbonne</desc>
    <link href="https://api.openstreetmap.org/user/Spontex/traces/875915">
    </link>
    <trkseg>
      <trkpt lat="43.409016" lon="1.704984">
        <time>2010-11-22T06:08:44Z</time>
      </trkpt>
      <trkpt lat="43.408688" lon="1.705263">
        <time>2010-11-22T06:08:45Z</time>
      </trkpt>
      <trkpt lat="43.408367" lon="1.705559">
        <time>2010-11-22T06:08:46Z</time>
      </trkpt>
      <trkpt lat="43.408047" lon="1.705856">
        <time>2010-11-22T06:08:47Z</time>
      </trkpt>
      <trkpt lat="43.407706" lon="1.706161">
        <time>2010-11-22T06:08:48Z</time>
      </trkpt>
      <trkpt lat="43.407372" lon="1.706467">
        <time>2010-11-22T06:08:49Z</time>
      </trkpt>
      <trkpt lat="43.407038" lon="1.70679">
        <time>2010-11-22T06:08:50Z</time>
      </trkpt>
      <trkpt lat="43.40671" lon="1.707078">
        <time>2010-11-22T06:08:51Z</time>
      </trkpt>
      <trkpt lat="43.40639" lon="1.707383">
        <time>2010-11-22T06:08:52Z</time>
      </trkpt>
      <trkpt lat="43.406062" lon="1.707679">
        <time>2010-11-22T06:08:53Z</time>
      </trkpt>
      <trkpt lat="43.405741" lon="1.707976">
        <time>2010-11-22T06:08:54Z</time>
      </trkpt>
      <trkpt lat="43.405401" lon="1.708272">
        <time>2010-11-22T06:08:55Z</time>
      </trkpt>
      <trkpt lat="43.405067" lon="1.708551">
        <time>2010-11-22T06:08:56Z</time>
      </trkpt>
      <trkpt lat="43.404719" lon="1.708838">
        <time>2010-11-22T06:08:57Z</time>
      </trkpt>
      <trkpt lat="43.404385" lon="1.709126">
        <time>2010-11-22T06:08:58Z</time>
      </trkpt>
      <trkpt lat="43.404051" lon="1.709413">
        <time>2010-11-22T06:08:59Z</time>
      </trkpt>
    </trkseg>
  </trk>
  <trk>
    <trkseg>
      <trkpt lat="43.4065383" lon="1.7088705">
        <time>2009-10-04T07:23:58Z</time>
      </trkpt>
      <trkpt lat="43.4065345" lon="1.7089007">
        <time>2009-10-04T07:25:27Z</time>
      </trkpt>
      <trkpt lat="43.4064845" lon="1.7089587">
        <time>2009-10-04T07:25:31Z</time>
      </trkpt>
      <trkpt lat="43.4064016" lon="1.7092642">
        <time>2009-10-04T07:25:43Z</time>
      </trkpt>
      <trkpt lat="43.4063969" lon="1.7093036">
        <time>2009-10-04T07:25:47Z</time>
      </trkpt>
      <trkpt lat="43.4062667" lon="1.7095022">
        <time>2009-10-04T07:25:52Z</time>
      </trkpt>
      <trkpt lat="43.4061571" lon="1.7093716">
        <time>2009-10-04T07:25:57Z</time>
      </trkpt>
      <trkpt lat="43.4061287" lon="1.7092191">
        <time>2009-10-04T07:26:11Z</time>
      </trkpt>
      <trkpt lat="43.4060943" lon="1.7090789">
        <time>2009-10-04T07:26:13Z</time>
      </trkpt>
      <trkpt lat="43.4057701" lon="1.7089437">
        <time>2009-10-04T07:26:18Z</time>
      </trkpt>
      <trkpt lat="43.4058111" lon="1.7093519">
        <time>2009-10-04T07:26:22Z</time>
      </trkpt>
      <trkpt lat="43.4062248" lon="1.7097229">
        <time>2009-10-04T07:26:27Z</time>
      </trkpt>
      <trkpt lat="43.4070324" lon="1.7109363">
        <time>2009-10-04T07:26:36Z</time>
      </trkpt>
      <trkpt lat="43.4071567" lon="1.7111409">
        <time>2009-10-04T07:26:41Z</time>
      </trkpt>
      <trkpt lat="43.4071909" lon="1.7112473">
        <time>2009-10-04T07:26:44Z</time>
      </trkpt>
      <trkpt lat="43.4071605" lon="1.7115898">
        <time>2009-10-04T07:26:49Z</time>
      </trkpt>
      <trkpt lat="43.4065995" lon="1.7127405">
        <time>2009-10-04T07:27:01Z</time>
      </trkpt>
    </trkseg>
    <trkseg>
      <trkpt lat="43.4061851" lon="1.7091089">
        <time>2009-08-20T07:01:04Z</time>
      </trkpt>
      <trkpt lat="43.4062774" lon="1.7091307">
        <time>2009-08-20T07:05:13Z</time>
      </trkpt>
      <trkpt lat="43.4062722" lon="1.7091281">
        <time>2009-08-20T07:05:29Z</time>
      </trkpt>
      <trkpt lat="43.4062688" lon="1.7091442">
        <time>2009-08-20T07:09:34Z</time>
      </trkpt>
      <trkpt lat="43.4062712" lon="1.7091235">
        <time>2009-08-20T07:10:01Z</time>
      </trkpt>
      <trkpt lat="43.4062569" lon="1.7091214">
        <time>2009-08-20T07:10:47Z</time>
      </trkpt>
      <trkpt lat="43.4062825" lon="1.7093284">
        <time>2009-08-20T07:10:52Z</time>
      </trkpt>
      <trkpt lat="43.4062854" lon="1.7094517">
        <time>2009-08-20T07:10:54Z</time>
      </trkpt>
      <trkpt lat="43.4062166" lon="1.7094767">
        <time>2009-08-20T07:10:58Z</time>
      </trkpt>
      <trkpt lat="43.4061703" lon="1.7093172">
        <time>2009-08-20T07:11:01Z</time>
      </trkpt>
      <trkpt lat="43.4061396" lon="1.7091596">
        <time>2009-08-20T07:11:03Z</time>
      </trkpt>
      <trkpt lat="43.4058906" lon="1.7088839">
        <time>2009-08-20T07:11:08Z</time>
      </trkpt>
      <trkpt lat="43.4057463" lon="1.7090352">
        <time>2009-08-20T07:11:10Z</time>
      </trkpt>
      <trkpt lat="43.4057107" lon="1.709145">
        <time>2009-08-20T07:11:11Z</time>
      </trkpt>
      <trkpt lat="43.4054333" lon="1.7096746">
        <time>2009-08-20T07:11:16Z</time>
      </trkpt>
      <trkpt lat="43.4049309" lon="1.7101801">
        <time>2009-08-20T07:11:21Z</time>
      </trkpt>
      <trkpt lat="43.4041996" lon="1.7109182">
        <time>2009-08-20T07:11:27Z</time>
      </trkpt>
    </trkseg>
    <trkseg>
      <trkpt lat="43.4051884" lon="1.7056181">
        <time>2010-03-07T11:33:15Z</time>
      </trkpt>
      <trkpt lat="43.4056527" lon="1.7063676">
        <time>2010-03-07T11:33:18Z</time>
      </trkpt>
      <trkpt lat="43.4060103" lon="1.7076922">
        <time>2010-03-07T11:33:23Z</time>
      </trkpt>
      <trkpt lat="43.4059918" lon="1.7079382">
        <time>2010-03-07T11:33:24Z</time>
      </trkpt>
      <trkpt lat="43.405901" lon="1.7083602">
        <time>2010-03-07T11:33:26Z</time>
      </trkpt>
      <trkpt lat="43.4057696" lon="1.7091152">
        <time>2010-03-07T11:33:32Z</time>
      </trkpt>
      <trkpt lat="43.4060224" lon="1.709347">
        <time>2010-03-07T11:33:37Z</time>
      </trkpt>
      <trkpt lat="43.4062705" lon="1.7087472">
        <time>2010-03-07T11:33:41Z</time>
      </trkpt>
      <trkpt lat="43.4066412" lon="1.7085418">
        <time>2010-03-07T11:33:46Z</time>
      </trkpt>
      <trkpt lat="43.406733" lon="1.7088354">
        <time>2010-03-07T11:33:50Z</time>
      </trkpt>
      <trkpt lat="43.4065415" lon="1.7088209">
        <time>2010-03-07T11:33:56Z</time>
      </trkpt>
      <trkpt lat="43.4065457" lon="1.7088138">
        <time>2010-03-07T11:34:16Z</time>
      </trkpt>
      <trkpt lat="43.4065457" lon="1.7087981">
        <time>2010-03-07T11:43:17Z</time>
      </trkpt>
      <trkpt lat="43.4064937" lon="1.7088862">
        <time>2010-03-07T11:43:21Z</time>
      </trkpt>
      <trkpt lat="43.4062941" lon="1.7092007">
        <time>2010-03-07T11:43:34Z</time>
      </trkpt>
      <trkpt lat="43.4062815" lon="1.7092472">
        <time>2010-03-07T11:43:35Z</time>
      </trkpt>
      <trkpt lat="43.4061957" lon="1.7094482">
        <time>2010-03-07T11:43:42Z</time>
      </trkpt>
      <trkpt lat="43.4061848" lon="1.7094085">
        <time>2010-03-07T11:43:43Z</time>
      </trkpt>
      <trkpt lat="43.4061373" lon="1.7091251">
        <time>2010-03-07T11:43:50Z</time>
      </trkpt>
      <trkpt lat="43.4060015" lon="1.7088541">
        <time>2010-03-07T11:43:55Z</time>
      </trkpt>
      <trkpt lat="43.4058704" lon="1.7082298">
        <time>2010-03-07T11:44:01Z</time>
      </trkpt>
      <trkpt lat="43.4058767" lon="1.7068224">
        <time>2010-03-07T11:44:07Z</time>
      </trkpt>
      <trkpt lat="43.4055018" lon="1.7060031">
        <time>2010-03-07T11:44:10Z</time>
      </trkpt>
    </trkseg>
  </trk>
  <trk>
    <name>20090820.gpx</name>
    <desc>road in Ariège</desc>
    <link href="https://api.openstreetmap.org/user/Balooval/traces/487041">
    </link>
    <trkseg>
      <trkpt lat="43.407526" lon="1.706252">
        <time>2009-08-20T13:02:00Z</time>
      </trkpt>
      <trkpt lat="43.405579" lon="1.708038">
        <time>2009-08-20T13:02:08Z</time>
      </trkpt>
    </trkseg>
  </trk>
  <trk>
    <trkseg>
      <trkpt lat="43.40375" lon="1.711433"/>
      <trkpt lat="43.403778" lon="1.711433"/>
      <trkpt lat="43.403785" lon="1.711322"/>
      <trkpt lat="43.403833" lon="1.709493"/>
      <trkpt lat="43.403866" lon="1.711316"/>
      <trkpt lat="43.403873" lon="1.711237"/>
      <trkpt lat="43.40391" lon="1.711307"/>
      <trkpt lat="43.403959" lon="1.711153"/>
      <trkpt lat="43.403983" lon="1.7112"/>
      <trkpt lat="43.404028" lon="1.711178"/>
      <trkpt lat="43.404042" lon="1.711067"/>
      <trkpt lat="43.404083" lon="1.711083"/>
      <trkpt lat="43.404124" lon="1.710978"/>
      <trkpt lat="43.404125" lon="1.711001"/>
      <trkpt lat="43.404155" lon="1.711058"/>
      <trkpt lat="43.4041717" lon="1.7109217"/>
      <trkpt lat="43.4042" lon="1.710966"/>
      <trkpt lat="43.404209" lon="1.71089"/>
      <trkpt lat="43.404292" lon="1.710933"/>
      <trkpt lat="43.404295" lon="1.710799"/>
      <trkpt lat="43.404316" lon="1.71085"/>
      <trkpt lat="43.404381" lon="1.710709"/>
      <trkpt lat="43.404387" lon="1.710767"/>
      <trkpt lat="43.404425" lon="1.710802"/>
      <trkpt lat="43.404433" lon="1.710733"/>
      <trkpt lat="43.404468" lon="1.710618"/>
      <trkpt lat="43.404493" lon="1.70889"/>
      <trkpt lat="43.404533" lon="1.710633"/>
      <trkpt lat="43.404542" lon="1.7045101"/>
      <trkpt lat="43.404556" lon="1.710528"/>
      <trkpt lat="43.40456" lon="1.71066"/>
      <trkpt lat="43.404644" lon="1.710439"/>
      <trkpt lat="43.4046498" lon="1.7046754"/>
      <trkpt lat="43.40465" lon="1.710516"/>
      <trkpt lat="43.40466" lon="1.70482"/>
      <trkpt lat="43.404688" lon="1.710523"/>
      <trkpt lat="43.4046883" lon="1.7104033"/>
      <trkpt lat="43.404731" lon="1.710349"/>
      <trkpt lat="43.4047612" lon="1.7048436"/>
      <trkpt lat="43.404766" lon="1.7104"/>
      <trkpt lat="43.404813" lon="1.710397"/>
      <trkpt lat="43.404818" lon="1.71026"/>
      <trkpt lat="43.404866" lon="1.710283"/>
      <trkpt lat="43.4048728" lon="1.7050128"/>
      <trkpt lat="43.40488" lon="1.710268"/>
      <trkpt lat="43.404903" lon="1.710174"/>
      <trkpt lat="43.404935" lon="1.710263"/>
      <trkpt lat="43.404952" lon="1.710198"/>
      <trkpt lat="43.4049822" lon="1.7051818"/>
      <trkpt lat="43.404983" lon="1.710183"/>
      <trkpt lat="43.404986" lon="1.710088"/>
      <trkpt lat="43.405067" lon="1.710004"/>
      <trkpt lat="43.405067" lon="1.710127"/>
      <trkpt lat="43.405083" lon="1.710066"/>
      <trkpt lat="43.4050916" lon="1.7053537"/>
      <trkpt lat="43.405147" lon="1.709922"/>
      <trkpt lat="43.405155" lon="1.708285"/>
      <trkpt lat="43.40518" lon="1.7099"/>
      <trkpt lat="43.405183" lon="1.709966"/>
      <trkpt lat="43.405192" lon="1.71"/>
      <trkpt lat="43.4051967" lon="1.7055177"/>
      <trkpt lat="43.405226" lon="1.709843"/>
      <trkpt lat="43.405254" lon="1.70989"/>
      <trkpt lat="43.405283" lon="1.709866"/>
      <trkpt lat="43.4053024" lon="1.7056805"/>
      <trkpt lat="43.405304" lon="1.709764"/>
      <trkpt lat="43.405312" lon="1.709873"/>
      <trkpt lat="43.405382" lon="1.709686"/>
      <trkpt lat="43.405383" lon="1.709766"/>
      <trkpt lat="43.4054064" lon="1.7058413"/>
      <trkpt lat="43.405427" lon="1.70974"/>
      <trkpt lat="43.405456" lon="1.709672"/>
      <trkpt lat="43.4055029" lon="1.7059933"/>
      <trkpt lat="43.405532" lon="1.709524"/>
      <trkpt lat="43.405533" lon="1.709583"/>
      <trkpt lat="43.405537" lon="1.709608"/>
      <trkpt lat="43.4055867" lon="1.7094567"/>
      <trkpt lat="43.4055908" lon="1.7061389"/>
      <trkpt lat="43.405596" lon="1.709432"/>
      <trkpt lat="43.405633" lon="1.709475"/>
      <trkpt lat="43.405647" lon="1.709487"/>
      <trkpt lat="43.40565" lon="1.7094"/>
      <trkpt lat="43.405666" lon="1.709209"/>
      <trkpt lat="43.405666" lon="1.709466"/>
      <trkpt lat="43.4056759" lon="1.7062868"/>
      <trkpt lat="43.405679" lon="1.709434"/>
      <trkpt lat="43.4057" lon="1.70902"/>
      <trkpt lat="43.405709" lon="1.709388"/>
      <trkpt lat="43.405714" lon="1.708999"/>
      <trkpt lat="43.40572" lon="1.709409"/>
      <trkpt lat="43.4057483" lon="1.7089617"/>
      <trkpt lat="43.40576" lon="1.709396"/>
      <trkpt lat="43.4057615" lon="1.7064455"/>
      <trkpt lat="43.405768" lon="1.7094"/>
      <trkpt lat="43.405781" lon="1.7093"/>
      <trkpt lat="43.40579" lon="1.70663"/>
      <trkpt lat="43.40579" lon="1.7094"/>
      <trkpt lat="43.405807" lon="1.709314"/>
      <trkpt lat="43.405809" lon="1.70939"/>
      <trkpt lat="43.405818" lon="1.707681"/>
      <trkpt lat="43.405829" lon="1.708876"/>
      <trkpt lat="43.405833" lon="1.709416"/>
      <trkpt lat="43.4058369" lon="1.7065932"/>
      <trkpt lat="43.405841" lon="1.709314"/>
      <trkpt lat="43.4058411" lon="1.7085066"/>
      <trkpt lat="43.4058446" lon="1.7086033"/>
      <trkpt lat="43.4058582" lon="1.7084061"/>
      <trkpt lat="43.405859" lon="1.709395"/>
      <trkpt lat="43.4058721" lon="1.7086821"/>
      <trkpt lat="43.405875" lon="1.709325"/>
      <trkpt lat="43.4058845" lon="1.7082932"/>
      <trkpt lat="43.40589" lon="1.70811"/>
      <trkpt lat="43.4058935" lon="1.7067519"/>
      <trkpt lat="43.40591" lon="1.709392"/>
      <trkpt lat="43.4059119" lon="1.7087401"/>
      <trkpt lat="43.4059153" lon="1.7081803"/>
      <trkpt lat="43.405917" lon="1.709401"/>
      <trkpt lat="43.40592" lon="1.709331"/>
      <trkpt lat="43.4059393" lon="1.7069104"/>
      <trkpt lat="43.4059456" lon="1.7080649"/>
      <trkpt lat="43.4059576" lon="1.7087817"/>
      <trkpt lat="43.405973" lon="1.7079436"/>
      <trkpt lat="43.4059735" lon="1.7070647"/>
      <trkpt lat="43.405982" lon="1.709383"/>
      <trkpt lat="43.405986" lon="1.708862"/>
      <trkpt lat="43.405991" lon="1.70931"/>
      <trkpt lat="43.4059943" lon="1.7078186"/>
      <trkpt lat="43.4059981" lon="1.7072258"/>
      <trkpt lat="43.406" lon="1.709366"/>
      <trkpt lat="43.4060008" lon="1.7087971"/>
      <trkpt lat="43.4060103" lon="1.7076797"/>
      <trkpt lat="43.4060112" lon="1.707385"/>
      <trkpt lat="43.4060197" lon="1.7075332"/>
      <trkpt lat="43.406033" lon="1.709283"/>
      <trkpt lat="43.406041" lon="1.709333"/>
      <trkpt lat="43.4060432" lon="1.7088056"/>
      <trkpt lat="43.406052" lon="1.709275"/>
      <trkpt lat="43.406063" lon="1.709473"/>
      <trkpt lat="43.4060812" lon="1.7088089"/>
      <trkpt lat="43.406086" lon="1.709254"/>
      <trkpt lat="43.4061" lon="1.7088167"/>
      <trkpt lat="43.4061" lon="1.7092"/>
      <trkpt lat="43.406102" lon="1.709211"/>
      <trkpt lat="43.4061068" lon="1.7088082"/>
      <trkpt lat="43.406114" lon="1.709151"/>
      <trkpt lat="43.4061248" lon="1.7088025"/>
      <trkpt lat="43.406134" lon="1.709035"/>
      <trkpt lat="43.406137" lon="1.708824"/>
      <trkpt lat="43.40614" lon="1.709124"/>
      <trkpt lat="43.4061437" lon="1.7087947"/>
      <trkpt lat="43.406166" lon="1.708917"/>
      <trkpt lat="43.406166" lon="1.70895"/>
      <trkpt lat="43.406166" lon="1.709026"/>
      <trkpt lat="43.4061699" lon="1.7087815"/>
      <trkpt lat="43.406185" lon="1.709597"/>
      <trkpt lat="43.406192" lon="1.708917"/>
      <trkpt lat="43.4062022" lon="1.7087555"/>
      <trkpt lat="43.406222" lon="1.70881"/>
      <trkpt lat="43.406233" lon="1.708814"/>
      <trkpt lat="43.406236" lon="1.708714"/>
      <trkpt lat="43.4062378" lon="1.7087206"/>
      <trkpt lat="43.406287" lon="1.708671"/>
      <trkpt lat="43.406292" lon="1.70872"/>
      <trkpt lat="43.406292" lon="1.709773"/>
      <trkpt lat="43.406295" lon="1.708714"/>
      <trkpt lat="43.4063" lon="1.708733"/>
      <trkpt lat="43.406316" lon="1.708599"/>
      <trkpt lat="43.406334" lon="1.708603"/>
      <trkpt lat="43.4063418" lon="1.7086129"/>
      <trkpt lat="43.406363" lon="1.708635"/>
      <trkpt lat="43.4063933" lon="1.7085483"/>
      <trkpt lat="43.4064" lon="1.709945"/>
      <trkpt lat="43.4064017" lon="1.708545"/>
      <trkpt lat="43.406439" lon="1.708549"/>
      <trkpt lat="43.406461" lon="1.708464"/>
      <trkpt lat="43.4064682" lon="1.7084699"/>
      <trkpt lat="43.40649" lon="1.707075"/>
      <trkpt lat="43.406513" lon="1.710143"/>
      <trkpt lat="43.406538" lon="1.708381"/>
      <trkpt lat="43.406539" lon="1.7083859"/>
      <trkpt lat="43.4066" lon="1.708383"/>
      <trkpt lat="43.4066192" lon="1.7082909"/>
      <trkpt lat="43.406622" lon="1.708289"/>
      <trkpt lat="43.406645" lon="1.710328"/>
      <trkpt lat="43.406665" lon="1.7082217"/>
      <trkpt lat="43.4067" lon="1.70825"/>
      <trkpt lat="43.4067113" lon="1.7081851"/>
      <trkpt lat="43.406715" lon="1.708192"/>
      <trkpt lat="43.406782" lon="1.710525"/>
      <trkpt lat="43.4068094" lon="1.7080789"/>
      <trkpt lat="43.406812" lon="1.708094"/>
      <trkpt lat="43.406816" lon="1.708133"/>
      <trkpt lat="43.406828" lon="1.708126"/>
      <trkpt lat="43.406908" lon="1.707994"/>
      <trkpt lat="43.406913" lon="1.710698"/>
      <trkpt lat="43.4069147" lon="1.7079694"/>
      <trkpt lat="43.406933" lon="1.708"/>
      <trkpt lat="43.406973" lon="1.707975"/>
      <trkpt lat="43.407006" lon="1.707889"/>
      <trkpt lat="43.4070234" lon="1.7078636"/>
      <trkpt lat="43.407032" lon="1.710867"/>
      <trkpt lat="43.407066" lon="1.707783"/>
      <trkpt lat="43.407066" lon="1.707866"/>
      <trkpt lat="43.407095" lon="1.7077533"/>
      <trkpt lat="43.407111" lon="1.707786"/>
      <trkpt lat="43.4071347" lon="1.7077585"/>
      <trkpt lat="43.407145" lon="1.711028"/>
      <trkpt lat="43.40715" lon="1.706471"/>
      <trkpt lat="43.40718" lon="1.71105"/>
      <trkpt lat="43.407216" lon="1.707733"/>
      <trkpt lat="43.407223" lon="1.707686"/>
      <trkpt lat="43.407235" lon="1.711193"/>
      <trkpt lat="43.4072526" lon="1.7076504"/>
      <trkpt lat="43.40727" lon="1.71144"/>
      <trkpt lat="43.407325" lon="1.711305"/>
      <trkpt lat="43.407339" lon="1.707587"/>
      <trkpt lat="43.407366" lon="1.7076"/>
      <trkpt lat="43.4073891" lon="1.7075381"/>
      <trkpt lat="43.407438" lon="1.707554"/>
      <trkpt lat="43.40744" lon="1.707519"/>
      <trkpt lat="43.407458" lon="1.711333"/>
      <trkpt lat="43.40746" lon="1.707489"/>
      <trkpt lat="43.4075186" lon="1.7074369"/>
      <trkpt lat="43.407533" lon="1.707466"/>
      <trkpt lat="43.407581" lon="1.707391"/>
      <trkpt lat="43.407587" lon="1.7114"/>
      <trkpt lat="43.4076539" lon="1.7073347"/>
      <trkpt lat="43.407683" lon="1.70735"/>
      <trkpt lat="43.407695" lon="1.711535"/>
      <trkpt lat="43.407706" lon="1.707293"/>
      <trkpt lat="43.407718" lon="1.707343"/>
      <trkpt lat="43.4077879" lon="1.707233"/>
      <trkpt lat="43.407808" lon="1.711682"/>
      <trkpt lat="43.407811" lon="1.705868"/>
      <trkpt lat="43.4078217" lon="1.7071617"/>
      <trkpt lat="43.40784" lon="1.707195"/>
      <trkpt lat="43.40785" lon="1.707233"/>
      <trkpt lat="43.407922" lon="1.711833"/>
      <trkpt lat="43.4079291" lon="1.7071296"/>
      <trkpt lat="43.407976" lon="1.707094"/>
      <trkpt lat="43.408" lon="1.71187"/>
      <trkpt lat="43.408016" lon="1.7071"/>
      <trkpt lat="43.408042" lon="1.711983"/>
      <trkpt lat="43.4080658" lon="1.7070276"/>
      <trkpt lat="43.408111" lon="1.706991"/>
      <trkpt lat="43.408143" lon="1.712137"/>
      <trkpt lat="43.408183" lon="1.706983"/>
      <trkpt lat="43.4082017" lon="1.7069255"/>
      <trkpt lat="43.408244" lon="1.70689"/>
      <trkpt lat="43.408245" lon="1.712283"/>
      <trkpt lat="43.40833" lon="1.70686"/>
      <trkpt lat="43.408342" lon="1.71243"/>
      <trkpt lat="43.40835" lon="1.70685"/>
      <trkpt lat="43.4083537" lon="1.7068094"/>
      <trkpt lat="43.408383" lon="1.706787"/>
      <trkpt lat="43.408447" lon="1.712592"/>
      <trkpt lat="43.408478" lon="1.705256"/>
      <trkpt lat="43.4084952" lon="1.7066975"/>
      <trkpt lat="43.40852" lon="1.706645"/>
      <trkpt lat="43.408523" lon="1.706682"/>
      <trkpt lat="43.408533" lon="1.706716"/>
      <trkpt lat="43.40855" lon="1.71273"/>
      <trkpt lat="43.4086322" lon="1.7065914"/>
      <trkpt lat="43.408667" lon="1.706577"/>
      <trkpt lat="43.4087" lon="1.706583"/>
      <trkpt lat="43.408757" lon="1.706559"/>
      <trkpt lat="43.4087658" lon="1.7064883"/>
      <trkpt lat="43.408808" lon="1.706469"/>
      <trkpt lat="43.408883" lon="1.70645"/>
      <trkpt lat="43.4089109" lon="1.7063781"/>
      <trkpt lat="43.408946" lon="1.706357"/>
      <trkpt lat="43.409052" lon="1.7062716"/>
      <trkpt lat="43.409066" lon="1.706316"/>
      <trkpt lat="43.409085" lon="1.706245"/>
    </trkseg>
  </trk>
</gpx>